sensor_id;sensor_type;location;lat;lon;timestamp;P1;durP1;ratioP1;P2;durP2;ratioP2
37791;SDS011;29527;55.766;37.570;2023-02-15T00:01:31;2.35;;;0.90;;
37791;SDS011;29527;55.766;37.570;2023-02-15T00:03:57;3.42;;;0.85;;
37791;SDS011;29527;55.766;37.570;2023-02-15T00:06:23;2.25;;;0.55;;
37791;SDS011;29527;55.766;37.570;2023-02-15T00:08:48;5.97;;;1.00;;
37791;SDS011;29527;55.766;37.570;2023-02-15T00:11:14;3.45;;;0.82;;
37791;SDS011;29527;55.766;37.570;2023-02-15T00:13:42;4.25;;;0.77;;
37791;SDS011;29527;55.766;37.570;2023-02-15T00:16:11;3.10;;;0.70;;
37791;SDS011;29527;55.766;37.570;2023-02-15T00:18:40;2.35;;;0.80;;
37791;SDS011;29527;55.766;37.570;2023-02-15T00:21:07;3.15;;;0.93;;
37791;SDS011;29527;55.766;37.570;2023-02-15T00:23:34;4.57;;;0.80;;
37791;SDS011;29527;55.766;37.570;2023-02-15T00:26:12;3.25;;;1.05;;
37791;SDS011;29527;55.766;37.570;2023-02-15T00:28:38;3.15;;;0.80;;
37791;SDS011;29527;55.766;37.570;2023-02-15T00:31:10;4.68;;;1.00;;
37791;SDS011;29527;55.766;37.570;2023-02-15T00:33:37;3.53;;;0.95;;
37791;SDS011;29527;55.766;37.570;2023-02-15T00:36:03;1.88;;;0.75;;
37791;SDS011;29527;55.766;37.570;2023-02-15T00:38:31;6.20;;;0.75;;
37791;SDS011;29527;55.766;37.570;2023-02-15T00:40:57;2.30;;;0.70;;
37791;SDS011;29527;55.766;37.570;2023-02-15T00:43:25;4.32;;;1.17;;
37791;SDS011;29527;55.766;37.570;2023-02-15T00:45:51;6.07;;;1.48;;
37791;SDS011;29527;55.766;37.570;2023-02-15T00:48:17;2.75;;;0.70;;
37791;SDS011;29527;55.766;37.570;2023-02-15T00:50:46;3.53;;;1.08;;
37791;SDS011;29527;55.766;37.570;2023-02-15T00:53:14;8.05;;;1.00;;
37791;SDS011;29527;55.766;37.570;2023-02-15T00:55:39;3.55;;;0.80;;
37791;SDS011;29527;55.766;37.570;2023-02-15T00:58:08;5.65;;;0.90;;
37791;SDS011;29527;55.766;37.570;2023-02-15T01:00:35;5.32;;;1.00;;
37791;SDS011;29527;55.766;37.570;2023-02-15T01:03:01;3.53;;;0.80;;
37791;SDS011;29527;55.766;37.570;2023-02-15T01:05:26;7.78;;;1.17;;
37791;SDS011;29527;55.766;37.570;2023-02-15T01:07:52;4.80;;;0.90;;
37791;SDS011;29527;55.766;37.570;2023-02-15T01:10:17;1.83;;;0.82;;
37791;SDS011;29527;55.766;37.570;2023-02-15T01:12:43;6.30;;;0.95;;
37791;SDS011;29527;55.766;37.570;2023-02-15T01:15:08;5.47;;;1.20;;
37791;SDS011;29527;55.766;37.570;2023-02-15T01:17:34;8.38;;;1.00;;
37791;SDS011;29527;55.766;37.570;2023-02-15T01:20:00;4.38;;;0.90;;
37791;SDS011;29527;55.766;37.570;2023-02-15T01:22:26;4.32;;;0.90;;
37791;SDS011;29527;55.766;37.570;2023-02-15T01:24:51;6.32;;;1.10;;
37791;SDS011;29527;55.766;37.570;2023-02-15T01:27:17;3.53;;;0.82;;
37791;SDS011;29527;55.766;37.570;2023-02-15T01:29:43;7.95;;;1.20;;
37791;SDS011;29527;55.766;37.570;2023-02-15T01:32:08;2.58;;;1.00;;
37791;SDS011;29527;55.766;37.570;2023-02-15T01:34:34;4.35;;;1.00;;
37791;SDS011;29527;55.766;37.570;2023-02-15T01:36:59;6.60;;;1.00;;
37791;SDS011;29527;55.766;37.570;2023-02-15T01:39:25;3.58;;;1.13;;
37791;SDS011;29527;55.766;37.570;2023-02-15T01:41:50;4.38;;;0.88;;
37791;SDS011;29527;55.766;37.570;2023-02-15T01:47:16;4.30;;;1.20;;
37791;SDS011;29527;55.766;37.570;2023-02-15T01:50:06;3.67;;;0.98;;
37791;SDS011;29527;55.766;37.570;2023-02-15T01:52:38;2.83;;;0.77;;
37791;SDS011;29527;55.766;37.570;2023-02-15T01:55:09;3.47;;;0.98;;
37791;SDS011;29527;55.766;37.570;2023-02-15T01:57:35;4.32;;;1.00;;
37791;SDS011;29527;55.766;37.570;2023-02-15T02:00:03;4.50;;;1.00;;
37791;SDS011;29527;55.766;37.570;2023-02-15T02:02:31;5.05;;;1.20;;
37791;SDS011;29527;55.766;37.570;2023-02-15T02:04:57;4.68;;;1.08;;
37791;SDS011;29527;55.766;37.570;2023-02-15T02:07:29;5.25;;;1.35;;
37791;SDS011;29527;55.766;37.570;2023-02-15T02:09:57;3.83;;;0.95;;
37791;SDS011;29527;55.766;37.570;2023-02-15T02:12:23;2.97;;;0.70;;
37791;SDS011;29527;55.766;37.570;2023-02-15T02:14:50;4.50;;;1.17;;
37791;SDS011;29527;55.766;37.570;2023-02-15T02:25:58;3.38;;;0.90;;
37791;SDS011;29527;55.766;37.570;2023-02-15T02:28:49;5.18;;;0.80;;
37791;SDS011;29527;55.766;37.570;2023-02-15T02:34:45;5.05;;;0.90;;
37791;SDS011;29527;55.766;37.570;2023-02-15T02:37:48;4.43;;;0.93;;
37791;SDS011;29527;55.766;37.570;2023-02-15T02:40:25;3.75;;;1.02;;
37791;SDS011;29527;55.766;37.570;2023-02-15T02:43:29;6.03;;;1.10;;
37791;SDS011;29527;55.766;37.570;2023-02-15T02:46:13;3.63;;;0.90;;
37791;SDS011;29527;55.766;37.570;2023-02-15T02:48:45;3.58;;;1.20;;
37791;SDS011;29527;55.766;37.570;2023-02-15T02:51:14;5.22;;;1.10;;
37791;SDS011;29527;55.766;37.570;2023-02-15T02:53:46;4.80;;;1.13;;
37791;SDS011;29527;55.766;37.570;2023-02-15T02:56:28;4.97;;;0.98;;
37791;SDS011;29527;55.766;37.570;2023-02-15T02:59:02;4.03;;;1.20;;
37791;SDS011;29527;55.766;37.570;2023-02-15T03:01:33;2.85;;;1.55;;
37791;SDS011;29527;55.766;37.570;2023-02-15T03:04:13;3.90;;;1.30;;
37791;SDS011;29527;55.766;37.570;2023-02-15T03:06:48;3.03;;;1.00;;
37791;SDS011;29527;55.766;37.570;2023-02-15T03:09:19;4.43;;;1.23;;
37791;SDS011;29527;55.766;37.570;2023-02-15T03:12:07;3.97;;;1.33;;
37791;SDS011;29527;55.766;37.570;2023-02-15T03:14:36;6.55;;;1.80;;
37791;SDS011;29527;55.766;37.570;2023-02-15T03:17:02;3.40;;;0.85;;
37791;SDS011;29527;55.766;37.570;2023-02-15T03:19:31;4.32;;;1.25;;
37791;SDS011;29527;55.766;37.570;2023-02-15T03:22:04;4.93;;;1.48;;
37791;SDS011;29527;55.766;37.570;2023-02-15T03:24:40;5.35;;;1.23;;
37791;SDS011;29527;55.766;37.570;2023-02-15T03:27:17;7.07;;;1.48;;
37791;SDS011;29527;55.766;37.570;2023-02-15T03:29:50;5.78;;;1.50;;
37791;SDS011;29527;55.766;37.570;2023-02-15T03:32:20;7.20;;;1.58;;
37791;SDS011;29527;55.766;37.570;2023-02-15T03:34:47;6.47;;;1.67;;
37791;SDS011;29527;55.766;37.570;2023-02-15T03:37:29;4.22;;;1.50;;
37791;SDS011;29527;55.766;37.570;2023-02-15T03:40:06;5.00;;;1.40;;
37791;SDS011;29527;55.766;37.570;2023-02-15T03:42:59;6.38;;;1.40;;
37791;SDS011;29527;55.766;37.570;2023-02-15T03:45:30;3.70;;;1.05;;
37791;SDS011;29527;55.766;37.570;2023-02-15T03:47:57;3.15;;;1.30;;
37791;SDS011;29527;55.766;37.570;2023-02-15T03:50:27;3.42;;;1.15;;
37791;SDS011;29527;55.766;37.570;2023-02-15T03:53:14;4.53;;;1.10;;
37791;SDS011;29527;55.766;37.570;2023-02-15T03:55:42;9.05;;;1.63;;
37791;SDS011;29527;55.766;37.570;2023-02-15T03:58:11;7.70;;;1.60;;
37791;SDS011;29527;55.766;37.570;2023-02-15T04:00:59;7.93;;;1.80;;
37791;SDS011;29527;55.766;37.570;2023-02-15T04:04:01;6.50;;;1.20;;
37791;SDS011;29527;55.766;37.570;2023-02-15T04:06:34;9.82;;;1.83;;
37791;SDS011;29527;55.766;37.570;2023-02-15T04:09:00;2.97;;;1.08;;
37791;SDS011;29527;55.766;37.570;2023-02-15T04:11:43;3.83;;;1.13;;
37791;SDS011;29527;55.766;37.570;2023-02-15T04:14:10;5.18;;;1.50;;
37791;SDS011;29527;55.766;37.570;2023-02-15T04:16:54;5.63;;;1.25;;
37791;SDS011;29527;55.766;37.570;2023-02-15T04:19:20;4.28;;;1.40;;
37791;SDS011;29527;55.766;37.570;2023-02-15T04:22:03;2.40;;;1.05;;
37791;SDS011;29527;55.766;37.570;2023-02-15T04:24:47;4.07;;;0.98;;
37791;SDS011;29527;55.766;37.570;2023-02-15T04:27:31;7.43;;;1.25;;
37791;SDS011;29527;55.766;37.570;2023-02-15T04:29:56;2.47;;;1.17;;
37791;SDS011;29527;55.766;37.570;2023-02-15T04:32:22;4.38;;;1.75;;
37791;SDS011;29527;55.766;37.570;2023-02-15T04:34:47;4.85;;;1.30;;
37791;SDS011;29527;55.766;37.570;2023-02-15T04:37:13;2.70;;;1.20;;
37791;SDS011;29527;55.766;37.570;2023-02-15T04:39:38;4.25;;;1.27;;
37791;SDS011;29527;55.766;37.570;2023-02-15T04:42:03;5.70;;;1.88;;
37791;SDS011;29527;55.766;37.570;2023-02-15T04:44:29;4.95;;;1.13;;
37791;SDS011;29527;55.766;37.570;2023-02-15T04:46:54;3.47;;;1.35;;
37791;SDS011;29527;55.766;37.570;2023-02-15T04:49:20;3.75;;;1.65;;
37791;SDS011;29527;55.766;37.570;2023-02-15T04:51:45;3.47;;;1.27;;
37791;SDS011;29527;55.766;37.570;2023-02-15T04:54:11;4.22;;;1.38;;
37791;SDS011;29527;55.766;37.570;2023-02-15T04:56:36;8.07;;;1.63;;
37791;SDS011;29527;55.766;37.570;2023-02-15T04:59:03;5.10;;;1.60;;
37791;SDS011;29527;55.766;37.570;2023-02-15T05:01:28;4.22;;;1.63;;
37791;SDS011;29527;55.766;37.570;2023-02-15T05:03:53;3.65;;;1.42;;
37791;SDS011;29527;55.766;37.570;2023-02-15T05:06:19;5.57;;;1.48;;
37791;SDS011;29527;55.766;37.570;2023-02-15T05:08:45;5.10;;;1.42;;
37791;SDS011;29527;55.766;37.570;2023-02-15T05:11:10;6.80;;;1.70;;
37791;SDS011;29527;55.766;37.570;2023-02-15T05:13:36;11.90;;;1.85;;
37791;SDS011;29527;55.766;37.570;2023-02-15T05:16:01;11.18;;;1.67;;
37791;SDS011;29527;55.766;37.570;2023-02-15T05:18:26;4.47;;;1.30;;
37791;SDS011;29527;55.766;37.570;2023-02-15T05:20:52;4.28;;;1.35;;
37791;SDS011;29527;55.766;37.570;2023-02-15T05:23:17;6.30;;;1.45;;
37791;SDS011;29527;55.766;37.570;2023-02-15T05:25:47;5.88;;;1.70;;
37791;SDS011;29527;55.766;37.570;2023-02-15T05:28:31;7.30;;;1.67;;
37791;SDS011;29527;55.766;37.570;2023-02-15T05:31:02;3.63;;;1.30;;
37791;SDS011;29527;55.766;37.570;2023-02-15T05:33:28;3.97;;;1.45;;
37791;SDS011;29527;55.766;37.570;2023-02-15T05:35:53;4.85;;;1.65;;
37791;SDS011;29527;55.766;37.570;2023-02-15T05:38:19;4.70;;;1.52;;
37791;SDS011;29527;55.766;37.570;2023-02-15T05:40:44;4.47;;;1.70;;
37791;SDS011;29527;55.766;37.570;2023-02-15T05:43:10;6.03;;;2.08;;
37791;SDS011;29527;55.766;37.570;2023-02-15T05:45:35;7.43;;;2.67;;
37791;SDS011;29527;55.766;37.570;2023-02-15T05:48:01;6.03;;;2.38;;
37791;SDS011;29527;55.766;37.570;2023-02-15T05:50:26;6.25;;;1.98;;
37791;SDS011;29527;55.766;37.570;2023-02-15T05:52:52;6.63;;;1.85;;
37791;SDS011;29527;55.766;37.570;2023-02-15T05:55:18;3.92;;;1.95;;
37791;SDS011;29527;55.766;37.570;2023-02-15T05:57:43;5.90;;;2.00;;
37791;SDS011;29527;55.766;37.570;2023-02-15T06:00:09;6.38;;;1.80;;
37791;SDS011;29527;55.766;37.570;2023-02-15T06:02:35;5.32;;;2.03;;
37791;SDS011;29527;55.766;37.570;2023-02-15T06:05:02;9.20;;;2.28;;
37791;SDS011;29527;55.766;37.570;2023-02-15T06:07:28;7.25;;;2.30;;
37791;SDS011;29527;55.766;37.570;2023-02-15T06:09:54;5.95;;;2.28;;
37791;SDS011;29527;55.766;37.570;2023-02-15T06:12:19;9.57;;;2.85;;
37791;SDS011;29527;55.766;37.570;2023-02-15T06:14:45;5.22;;;2.40;;
37791;SDS011;29527;55.766;37.570;2023-02-15T06:17:10;8.02;;;2.53;;
37791;SDS011;29527;55.766;37.570;2023-02-15T06:19:36;7.95;;;2.72;;
37791;SDS011;29527;55.766;37.570;2023-02-15T06:22:01;11.63;;;2.83;;
37791;SDS011;29527;55.766;37.570;2023-02-15T06:24:27;9.35;;;3.08;;
37791;SDS011;29527;55.766;37.570;2023-02-15T06:26:52;7.13;;;2.65;;
37791;SDS011;29527;55.766;37.570;2023-02-15T06:29:17;6.60;;;3.28;;
37791;SDS011;29527;55.766;37.570;2023-02-15T06:31:43;9.93;;;3.25;;
37791;SDS011;29527;55.766;37.570;2023-02-15T06:34:08;11.60;;;3.30;;
37791;SDS011;29527;55.766;37.570;2023-02-15T06:36:34;7.30;;;3.75;;
37791;SDS011;29527;55.766;37.570;2023-02-15T06:39:00;6.03;;;2.70;;
37791;SDS011;29527;55.766;37.570;2023-02-15T06:41:27;7.10;;;2.75;;
37791;SDS011;29527;55.766;37.570;2023-02-15T06:43:52;9.27;;;3.08;;
37791;SDS011;29527;55.766;37.570;2023-02-15T06:46:18;11.05;;;3.10;;
37791;SDS011;29527;55.766;37.570;2023-02-15T06:48:43;7.82;;;2.53;;
37791;SDS011;29527;55.766;37.570;2023-02-15T06:51:09;4.82;;;2.20;;
37791;SDS011;29527;55.766;37.570;2023-02-15T06:53:34;6.32;;;2.08;;
37791;SDS011;29527;55.766;37.570;2023-02-15T06:56:04;7.22;;;2.42;;
37791;SDS011;29527;55.766;37.570;2023-02-15T06:58:34;8.38;;;2.70;;
37791;SDS011;29527;55.766;37.570;2023-02-15T07:01:10;9.30;;;2.70;;
37791;SDS011;29527;55.766;37.570;2023-02-15T07:03:36;7.35;;;2.45;;
37791;SDS011;29527;55.766;37.570;2023-02-15T07:06:03;6.05;;;2.60;;
37791;SDS011;29527;55.766;37.570;2023-02-15T07:08:33;11.10;;;3.45;;
37791;SDS011;29527;55.766;37.570;2023-02-15T07:10:59;5.32;;;2.70;;
37791;SDS011;29527;55.766;37.570;2023-02-15T07:13:43;8.13;;;3.72;;
37791;SDS011;29527;55.766;37.570;2023-02-15T07:16:09;10.70;;;3.50;;
37791;SDS011;29527;55.766;37.570;2023-02-15T07:18:35;10.05;;;3.55;;
37791;SDS011;29527;55.766;37.570;2023-02-15T07:21:01;10.07;;;3.38;;
37791;SDS011;29527;55.766;37.570;2023-02-15T07:23:27;9.43;;;3.03;;
37791;SDS011;29527;55.766;37.570;2023-02-15T07:25:56;6.80;;;2.60;;
37791;SDS011;29527;55.766;37.570;2023-02-15T07:28:22;7.75;;;2.67;;
37791;SDS011;29527;55.766;37.570;2023-02-15T07:30:48;11.77;;;3.47;;
37791;SDS011;29527;55.766;37.570;2023-02-15T07:33:13;9.43;;;3.38;;
37791;SDS011;29527;55.766;37.570;2023-02-15T07:35:51;8.90;;;3.40;;
37791;SDS011;29527;55.766;37.570;2023-02-15T07:38:19;8.20;;;3.17;;
37791;SDS011;29527;55.766;37.570;2023-02-15T07:40:45;10.10;;;3.05;;
37791;SDS011;29527;55.766;37.570;2023-02-15T07:43:10;9.93;;;3.30;;
37791;SDS011;29527;55.766;37.570;2023-02-15T07:45:37;8.55;;;3.17;;
37791;SDS011;29527;55.766;37.570;2023-02-15T07:48:03;10.98;;;3.38;;
37791;SDS011;29527;55.766;37.570;2023-02-15T07:50:30;7.68;;;3.45;;
37791;SDS011;29527;55.766;37.570;2023-02-15T07:52:56;7.80;;;3.30;;
37791;SDS011;29527;55.766;37.570;2023-02-15T07:55:21;7.38;;;2.65;;
37791;SDS011;29527;55.766;37.570;2023-02-15T07:57:47;5.35;;;2.75;;
37791;SDS011;29527;55.766;37.570;2023-02-15T08:00:15;9.18;;;3.05;;
37791;SDS011;29527;55.766;37.570;2023-02-15T08:02:42;7.78;;;3.47;;
37791;SDS011;29527;55.766;37.570;2023-02-15T08:05:12;7.43;;;3.28;;
37791;SDS011;29527;55.766;37.570;2023-02-15T08:07:37;6.70;;;3.05;;
37791;SDS011;29527;55.766;37.570;2023-02-15T08:10:03;7.50;;;2.40;;
37791;SDS011;29527;55.766;37.570;2023-02-15T08:12:29;7.18;;;2.60;;
37791;SDS011;29527;55.766;37.570;2023-02-15T08:14:54;4.18;;;2.40;;
37791;SDS011;29527;55.766;37.570;2023-02-15T08:17:19;4.43;;;2.20;;
37791;SDS011;29527;55.766;37.570;2023-02-15T08:19:45;5.15;;;2.30;;
37791;SDS011;29527;55.766;37.570;2023-02-15T08:22:12;8.85;;;2.38;;
37791;SDS011;29527;55.766;37.570;2023-02-15T08:24:39;8.25;;;2.80;;
37791;SDS011;29527;55.766;37.570;2023-02-15T08:27:06;5.70;;;2.83;;
37791;SDS011;29527;55.766;37.570;2023-02-15T08:29:33;6.88;;;2.90;;
37791;SDS011;29527;55.766;37.570;2023-02-15T08:32:01;4.57;;;2.40;;
37791;SDS011;29527;55.766;37.570;2023-02-15T08:34:31;6.35;;;2.63;;
37791;SDS011;29527;55.766;37.570;2023-02-15T08:36:58;4.53;;;2.08;;
37791;SDS011;29527;55.766;37.570;2023-02-15T08:39:24;4.82;;;2.13;;
37791;SDS011;29527;55.766;37.570;2023-02-15T08:41:49;9.13;;;2.15;;
37791;SDS011;29527;55.766;37.570;2023-02-15T08:44:16;7.53;;;2.67;;
37791;SDS011;29527;55.766;37.570;2023-02-15T08:46:43;8.45;;;2.55;;
37791;SDS011;29527;55.766;37.570;2023-02-15T08:49:11;5.50;;;2.28;;
37791;SDS011;29527;55.766;37.570;2023-02-15T08:51:38;4.28;;;2.10;;
37791;SDS011;29527;55.766;37.570;2023-02-15T08:54:05;7.20;;;2.10;;
37791;SDS011;29527;55.766;37.570;2023-02-15T08:56:34;3.70;;;1.65;;
37791;SDS011;29527;55.766;37.570;2023-02-15T08:59:02;5.20;;;1.90;;
37791;SDS011;29527;55.766;37.570;2023-02-15T09:01:29;4.05;;;1.75;;
37791;SDS011;29527;55.766;37.570;2023-02-15T09:03:57;7.25;;;1.95;;
37791;SDS011;29527;55.766;37.570;2023-02-15T09:06:25;2.95;;;1.80;;
37791;SDS011;29527;55.766;37.570;2023-02-15T09:08:51;5.13;;;2.10;;
37791;SDS011;29527;55.766;37.570;2023-02-15T09:11:18;4.60;;;2.50;;
37791;SDS011;29527;55.766;37.570;2023-02-15T09:13:52;6.78;;;2.67;;
37791;SDS011;29527;55.766;37.570;2023-02-15T09:16:20;4.82;;;1.90;;
37791;SDS011;29527;55.766;37.570;2023-02-15T09:18:47;4.03;;;1.83;;
37791;SDS011;29527;55.766;37.570;2023-02-15T09:21:14;4.63;;;2.28;;
37791;SDS011;29527;55.766;37.570;2023-02-15T09:23:41;7.22;;;2.35;;
37791;SDS011;29527;55.766;37.570;2023-02-15T09:26:12;4.28;;;2.20;;
37791;SDS011;29527;55.766;37.570;2023-02-15T09:28:40;5.22;;;1.73;;
37791;SDS011;29527;55.766;37.570;2023-02-15T09:31:10;7.78;;;2.28;;
37791;SDS011;29527;55.766;37.570;2023-02-15T09:33:39;6.28;;;2.47;;
37791;SDS011;29527;55.766;37.570;2023-02-15T09:36:05;6.97;;;2.85;;
37791;SDS011;29527;55.766;37.570;2023-02-15T09:38:38;7.38;;;2.35;;
37791;SDS011;29527;55.766;37.570;2023-02-15T09:47:15;5.15;;;2.13;;
37791;SDS011;29527;55.766;37.570;2023-02-15T09:55:37;6.65;;;2.90;;
37791;SDS011;29527;55.766;37.570;2023-02-15T10:03:52;4.22;;;2.38;;
37791;SDS011;29527;55.766;37.570;2023-02-15T10:06:43;4.63;;;2.10;;
37791;SDS011;29527;55.766;37.570;2023-02-15T10:12:22;8.20;;;2.35;;
37791;SDS011;29527;55.766;37.570;2023-02-15T10:20:46;5.22;;;2.42;;
37791;SDS011;29527;55.766;37.570;2023-02-15T10:23:28;9.10;;;2.50;;
37791;SDS011;29527;55.766;37.570;2023-02-15T10:28:51;3.53;;;1.85;;
37791;SDS011;29527;55.766;37.570;2023-02-15T10:31:26;4.82;;;2.30;;
37791;SDS011;29527;55.766;37.570;2023-02-15T10:33:58;6.38;;;2.53;;
37791;SDS011;29527;55.766;37.570;2023-02-15T10:36:48;4.22;;;2.47;;
37791;SDS011;29527;55.766;37.570;2023-02-15T10:39:41;5.55;;;2.08;;
37791;SDS011;29527;55.766;37.570;2023-02-15T10:48:23;5.03;;;2.00;;
37791;SDS011;29527;55.766;37.570;2023-02-15T10:51:11;4.35;;;1.70;;
37791;SDS011;29527;55.766;37.570;2023-02-15T11:01:54;5.30;;;1.60;;
37791;SDS011;29527;55.766;37.570;2023-02-15T11:06:56;2.90;;;1.23;;
37791;SDS011;29527;55.766;37.570;2023-02-15T11:09:29;5.20;;;1.50;;
37791;SDS011;29527;55.766;37.570;2023-02-15T11:12:02;5.32;;;2.25;;
37791;SDS011;29527;55.766;37.570;2023-02-15T11:17:10;7.38;;;2.15;;
37791;SDS011;29527;55.766;37.570;2023-02-15T11:19:43;5.57;;;1.77;;
37791;SDS011;29527;55.766;37.570;2023-02-15T11:22:25;6.60;;;1.77;;
37791;SDS011;29527;55.766;37.570;2023-02-15T11:24:51;5.00;;;2.50;;
37791;SDS011;29527;55.766;37.570;2023-02-15T11:27:19;7.68;;;2.95;;
37791;SDS011;29527;55.766;37.570;2023-02-15T11:32:31;6.32;;;2.20;;
37791;SDS011;29527;55.766;37.570;2023-02-15T11:35:01;3.25;;;1.33;;
37791;SDS011;29527;55.766;37.570;2023-02-15T11:37:33;2.95;;;1.30;;
37791;SDS011;29527;55.766;37.570;2023-02-15T11:40:01;3.63;;;1.20;;
37791;SDS011;29527;55.766;37.570;2023-02-15T11:42:29;2.75;;;1.00;;
37791;SDS011;29527;55.766;37.570;2023-02-15T11:47:51;8.73;;;1.70;;
37791;SDS011;29527;55.766;37.570;2023-02-15T11:50:19;4.68;;;1.85;;
37791;SDS011;29527;55.766;37.570;2023-02-15T11:52:49;3.33;;;1.75;;
37791;SDS011;29527;55.766;37.570;2023-02-15T11:55:21;6.40;;;2.03;;
37791;SDS011;29527;55.766;37.570;2023-02-15T12:00:49;3.83;;;2.30;;
37791;SDS011;29527;55.766;37.570;2023-02-15T12:03:24;5.97;;;2.30;;
37791;SDS011;29527;55.766;37.570;2023-02-15T12:05:58;7.18;;;2.38;;
37791;SDS011;29527;55.766;37.570;2023-02-15T12:08:30;3.60;;;1.60;;
37791;SDS011;29527;55.766;37.570;2023-02-15T12:13:32;4.88;;;2.00;;
37791;SDS011;29527;55.766;37.570;2023-02-15T12:15:58;2.60;;;1.40;;
37791;SDS011;29527;55.766;37.570;2023-02-15T12:18:37;1.80;;;1.30;;
37791;SDS011;29527;55.766;37.570;2023-02-15T12:21:07;5.20;;;1.25;;
37791;SDS011;29527;55.766;37.570;2023-02-15T12:23:41;6.53;;;1.58;;
37791;SDS011;29527;55.766;37.570;2023-02-15T12:26:23;2.00;;;1.13;;
37791;SDS011;29527;55.766;37.570;2023-02-15T12:28:50;2.40;;;0.90;;
37791;SDS011;29527;55.766;37.570;2023-02-15T12:31:20;0.98;;;0.77;;
37791;SDS011;29527;55.766;37.570;2023-02-15T12:33:50;3.20;;;0.70;;
37791;SDS011;29527;55.766;37.570;2023-02-15T12:36:23;3.05;;;0.70;;
37791;SDS011;29527;55.766;37.570;2023-02-15T12:41:43;5.45;;;0.93;;
37791;SDS011;29527;55.766;37.570;2023-02-15T12:44:19;8.23;;;1.20;;
37791;SDS011;29527;55.766;37.570;2023-02-15T12:46:59;2.28;;;1.20;;
37791;SDS011;29527;55.766;37.570;2023-02-15T12:49:25;1.88;;;0.93;;
37791;SDS011;29527;55.766;37.570;2023-02-15T12:51:55;5.75;;;1.30;;
37791;SDS011;29527;55.766;37.570;2023-02-15T12:54:34;3.75;;;1.58;;
37791;SDS011;29527;55.766;37.570;2023-02-15T12:59:52;2.08;;;0.80;;
37791;SDS011;29527;55.766;37.570;2023-02-15T13:02:21;4.47;;;1.25;;
37791;SDS011;29527;55.766;37.570;2023-02-15T13:04:52;3.58;;;1.30;;
37791;SDS011;29527;55.766;37.570;2023-02-15T13:07:18;2.42;;;0.75;;
37791;SDS011;29527;55.766;37.570;2023-02-15T13:09:45;4.50;;;1.23;;
37791;SDS011;29527;55.766;37.570;2023-02-15T13:12:20;4.55;;;1.23;;
37791;SDS011;29527;55.766;37.570;2023-02-15T13:14:50;4.10;;;1.25;;
37791;SDS011;29527;55.766;37.570;2023-02-15T13:17:17;1.63;;;0.90;;
37791;SDS011;29527;55.766;37.570;2023-02-15T13:19:52;2.80;;;1.20;;
37791;SDS011;29527;55.766;37.570;2023-02-15T13:22:26;2.25;;;0.80;;
37791;SDS011;29527;55.766;37.570;2023-02-15T13:25:22;2.47;;;1.00;;
37791;SDS011;29527;55.766;37.570;2023-02-15T13:28:03;1.75;;;0.60;;
37791;SDS011;29527;55.766;37.570;2023-02-15T13:30:40;5.75;;;1.52;;
37791;SDS011;29527;55.766;37.570;2023-02-15T13:36:09;4.00;;;1.60;;
37791;SDS011;29527;55.766;37.570;2023-02-15T14:01:19;2.08;;;0.52;;
37791;SDS011;29527;55.766;37.570;2023-02-15T14:04:24;4.90;;;1.00;;
37791;SDS011;29527;55.766;37.570;2023-02-15T14:15:08;4.10;;;1.02;;
37791;SDS011;29527;55.766;37.570;2023-02-15T14:31:50;3.40;;;2.20;;
37791;SDS011;29527;55.766;37.570;2023-02-15T14:34:22;3.20;;;1.40;;
37791;SDS011;29527;55.766;37.570;2023-02-15T14:36:52;3.90;;;1.27;;
37791;SDS011;29527;55.766;37.570;2023-02-15T14:39:26;3.15;;;1.25;;
37791;SDS011;29527;55.766;37.570;2023-02-15T14:42:24;3.42;;;1.50;;
37791;SDS011;29527;55.766;37.570;2023-02-15T14:45:15;2.38;;;1.00;;
37791;SDS011;29527;55.766;37.570;2023-02-15T14:50:57;1.58;;;1.00;;
37791;SDS011;29527;55.766;37.570;2023-02-15T14:58:37;3.60;;;1.25;;
37791;SDS011;29527;55.766;37.570;2023-02-15T15:01:04;3.95;;;1.08;;
37791;SDS011;29527;55.766;37.570;2023-02-15T15:03:32;1.95;;;0.80;;
37791;SDS011;29527;55.766;37.570;2023-02-15T15:06:00;1.63;;;0.77;;
37791;SDS011;29527;55.766;37.570;2023-02-15T15:08:36;2.17;;;0.95;;
37791;SDS011;29527;55.766;37.570;2023-02-15T15:13:57;2.00;;;1.13;;
37791;SDS011;29527;55.766;37.570;2023-02-15T15:19:09;2.35;;;0.63;;
37791;SDS011;29527;55.766;37.570;2023-02-15T15:28:04;2.28;;;0.70;;
37791;SDS011;29527;55.766;37.570;2023-02-15T15:49:36;2.00;;;0.52;;
37791;SDS011;29527;55.766;37.570;2023-02-15T15:52:08;2.72;;;1.05;;
37791;SDS011;29527;55.766;37.570;2023-02-15T15:54:38;2.03;;;0.70;;
37791;SDS011;29527;55.766;37.570;2023-02-15T15:57:05;2.05;;;1.20;;
37791;SDS011;29527;55.766;37.570;2023-02-15T15:59:43;3.88;;;0.98;;
37791;SDS011;29527;55.766;37.570;2023-02-15T16:02:14;2.05;;;0.52;;
37791;SDS011;29527;55.766;37.570;2023-02-15T16:04:42;1.52;;;0.75;;
37791;SDS011;29527;55.766;37.570;2023-02-15T16:10:01;2.30;;;0.70;;
37791;SDS011;29527;55.766;37.570;2023-02-15T16:12:30;1.75;;;0.60;;
37791;SDS011;29527;55.766;37.570;2023-02-15T16:15:00;2.15;;;1.30;;
37791;SDS011;29527;55.766;37.570;2023-02-15T16:17:30;2.08;;;0.80;;
37791;SDS011;29527;55.766;37.570;2023-02-15T16:20:01;1.17;;;0.50;;
37791;SDS011;29527;55.766;37.570;2023-02-15T16:22:31;2.50;;;0.50;;
37791;SDS011;29527;55.766;37.570;2023-02-15T16:28:05;2.47;;;1.00;;
37791;SDS011;29527;55.766;37.570;2023-02-15T16:30:33;2.80;;;0.82;;
37791;SDS011;29527;55.766;37.570;2023-02-15T16:35:29;7.18;;;1.20;;
37791;SDS011;29527;55.766;37.570;2023-02-15T16:37:55;2.13;;;1.20;;
37791;SDS011;29527;55.766;37.570;2023-02-15T16:42:57;1.27;;;0.70;;
37791;SDS011;29527;55.766;37.570;2023-02-15T16:45:27;3.42;;;1.15;;
37791;SDS011;29527;55.766;37.570;2023-02-15T16:47:57;2.25;;;1.02;;
37791;SDS011;29527;55.766;37.570;2023-02-15T16:50:33;3.35;;;0.90;;
37791;SDS011;29527;55.766;37.570;2023-02-15T16:53:01;1.63;;;1.05;;
37791;SDS011;29527;55.766;37.570;2023-02-15T16:55:37;1.80;;;1.13;;
37791;SDS011;29527;55.766;37.570;2023-02-15T16:58:05;2.03;;;0.90;;
37791;SDS011;29527;55.766;37.570;2023-02-15T17:00:36;1.38;;;0.70;;
37791;SDS011;29527;55.766;37.570;2023-02-15T17:03:27;2.42;;;0.90;;
37791;SDS011;29527;55.766;37.570;2023-02-15T17:05:55;1.92;;;0.88;;
37791;SDS011;29527;55.766;37.570;2023-02-15T17:11:39;1.10;;;0.80;;
37791;SDS011;29527;55.766;37.570;2023-02-15T17:16:35;1.80;;;0.90;;
37791;SDS011;29527;55.766;37.570;2023-02-15T17:19:09;1.80;;;0.80;;
37791;SDS011;29527;55.766;37.570;2023-02-15T17:22:03;1.50;;;0.90;;
37791;SDS011;29527;55.766;37.570;2023-02-15T17:27:06;1.90;;;0.88;;
37791;SDS011;29527;55.766;37.570;2023-02-15T17:29:38;1.30;;;0.80;;
37791;SDS011;29527;55.766;37.570;2023-02-15T17:32:11;1.65;;;1.02;;
37791;SDS011;29527;55.766;37.570;2023-02-15T17:37:26;3.10;;;1.33;;
37791;SDS011;29527;55.766;37.570;2023-02-15T17:39:53;3.78;;;1.17;;
37791;SDS011;29527;55.766;37.570;2023-02-15T17:42:19;2.13;;;1.08;;
37791;SDS011;29527;55.766;37.570;2023-02-15T17:44:45;2.90;;;1.00;;
37791;SDS011;29527;55.766;37.570;2023-02-15T17:47:14;1.85;;;1.08;;
37791;SDS011;29527;55.766;37.570;2023-02-15T17:49:42;3.38;;;1.20;;
37791;SDS011;29527;55.766;37.570;2023-02-15T17:52:12;1.98;;;1.10;;
37791;SDS011;29527;55.766;37.570;2023-02-15T17:54:40;3.95;;;1.30;;
37791;SDS011;29527;55.766;37.570;2023-02-15T17:57:25;5.05;;;1.73;;
37791;SDS011;29527;55.766;37.570;2023-02-15T17:59:52;3.65;;;1.30;;
37791;SDS011;29527;55.766;37.570;2023-02-15T18:02:36;2.50;;;0.98;;